Time;durP1;ratioP1;P1;durP2;ratioP2;P2;SDS_P1;SDS_P2;PMS_P1;PMS_P2;Temp;Humidity;BMP_temperature;BMP_pressure;BME280_temperature;BME280_humidity;BME280_pressure;Samples;Min_cycle;Max_cycle;Signal;HPM_P1;HPM_P2
2022/11/10 00:00:19;;;;;;;18.50;4.95;;;;;;;;;;5051084;28;20099;-66
2022/11/10 00:02:45;;;;;;;18.55;4.55;;;;;;;;;;5051608;28;20036;-66
2022/11/10 00:05:12;;;;;;;20.00;4.70;;;;;;;;;;5051247;28;20041;-66
2022/11/10 00:07:38;;;;;;;21.63;4.55;;;;;;;;;;5051226;28;20120;-66
2022/11/10 00:10:05;;;;;;;15.82;4.68;;;;;;;;;;5051424;28;20033;-66
2022/11/10 00:12:32;;;;;;;16.10;4.22;;;;;;;;;;5050615;28;20091;-66
2022/11/10 00:17:43;;;;;;;21.35;5.15;;;;;;;;;;5051428;28;20045;-66
2022/11/10 00:20:10;;;;;;;14.52;4.75;;;;;;;;;;5051076;28;20510;-66
2022/11/10 00:22:36;;;;;;;22.70;4.70;;;;;;;;;;5051496;28;20079;-66
2022/11/10 00:25:03;;;;;;;16.70;4.85;;;;;;;;;;5051496;28;20043;-66
2022/11/10 00:27:29;;;;;;;17.23;5.25;;;;;;;;;;5051079;28;20060;-66
2022/11/10 00:29:55;;;;;;;16.15;4.65;;;;;;;;;;5051224;28;20049;-66
2022/11/10 00:32:21;;;;;;;18.40;5.28;;;;;;;;;;5051267;28;20037;-66
2022/11/10 00:34:47;;;;;;;24.50;5.75;;;;;;;;;;5050943;28;20061;-66
2022/11/10 00:37:13;;;;;;;20.35;5.30;;;;;;;;;;5051330;28;20041;-66
2022/11/10 00:39:39;;;;;;;26.27;5.38;;;;;;;;;;5051192;28;20086;-66
2022/11/10 00:42:06;;;;;;;25.70;5.63;;;;;;;;;;5050974;28;20677;-66
2022/11/10 00:44:32;;;;;;;18.65;5.68;;;;;;;;;;5051304;28;20092;-66
2022/11/10 00:46:59;;;;;;;20.75;5.57;;;;;;;;;;5051307;28;20045;-66
2022/11/10 00:49:25;;;;;;;25.45;5.75;;;;;;;;;;5050528;28;20037;-66
2022/11/10 00:51:51;;;;;;;18.08;5.53;;;;;;;;;;5051271;28;20403;-66
2022/11/10 00:54:17;;;;;;;27.90;5.60;;;;;;;;;;5051072;28;20048;-66
2022/11/10 00:56:43;;;;;;;26.15;5.50;;;;;;;;;;5050709;28;20491;-66
2022/11/10 00:59:09;;;;;;;18.80;5.72;;;;;;;;;;5051105;28;20741;-66
2022/11/10 01:01:35;;;;;;;21.15;5.18;;;;;;;;;;5051087;28;20041;-66
2022/11/10 01:04:01;;;;;;;21.77;5.75;;;;;;;;;;5050959;28;20037;-66
2022/11/10 01:06:27;;;;;;;17.92;5.03;;;;;;;;;;5050676;28;20041;-66
2022/11/10 01:08:53;;;;;;;18.13;5.75;;;;;;;;;;5050927;28;20041;-66
2022/11/10 01:11:21;;;;;;;19.65;5.03;;;;;;;;;;5050910;28;20052;-66
2022/11/10 01:13:49;;;;;;;18.25;5.15;;;;;;;;;;5054046;28;20049;-66
2022/11/10 01:16:18;;;;;;;24.60;5.72;;;;;;;;;;5054686;28;20083;-66
2022/11/10 01:18:44;;;;;;;28.10;6.28;;;;;;;;;;5054658;28;20087;-66
2022/11/10 01:21:10;;;;;;;25.17;5.68;;;;;;;;;;5054346;28;20558;-66
2022/11/10 01:23:36;;;;;;;23.52;6.80;;;;;;;;;;5054752;28;20128;-66
2022/11/10 01:26:04;;;;;;;26.88;7.15;;;;;;;;;;5054610;28;20056;-66
2022/11/10 01:28:31;;;;;;;29.48;7.03;;;;;;;;;;5054079;28;20040;-66
2022/11/10 01:31:00;;;;;;;16.85;5.93;;;;;;;;;;5054403;28;20037;-66
2022/11/10 01:33:27;;;;;;;22.42;6.40;;;;;;;;;;5054448;28;20045;-66
2022/11/10 01:35:53;;;;;;;24.30;6.38;;;;;;;;;;5054014;28;20040;-66
2022/11/10 01:38:19;;;;;;;25.00;6.20;;;;;;;;;;5054003;28;20048;-66
2022/11/10 01:40:46;;;;;;;24.90;6.68;;;;;;;;;;5053854;28;20047;-66
2022/11/10 01:43:12;;;;;;;21.15;5.80;;;;;;;;;;5053756;28;20037;-66
2022/11/10 01:45:47;;;;;;;26.30;6.63;;;;;;;;;;5054278;28;20056;-66
2022/11/10 01:48:20;;;;;;;26.40;6.13;;;;;;;;;;5054185;28;20063;-66
2022/11/10 01:50:47;;;;;;;19.92;5.65;;;;;;;;;;5053639;28;20037;-66
2022/11/10 01:53:17;;;;;;;22.63;5.68;;;;;;;;;;5053924;28;20045;-66
2022/11/10 01:55:44;;;;;;;26.25;6.07;;;;;;;;;;5054008;28;20037;-66
2022/11/10 01:58:11;;;;;;;17.40;5.32;;;;;;;;;;5053284;28;20605;-66
2022/11/10 02:00:37;;;;;;;19.25;5.80;;;;;;;;;;5053877;28;20037;-66
2022/11/10 02:03:09;;;;;;;24.88;5.97;;;;;;;;;;5053896;28;20080;-66
2022/11/10 02:05:35;;;;;;;17.35;5.32;;;;;;;;;;5053523;28;20033;-66
2022/11/10 02:08:02;;;;;;;16.95;5.10;;;;;;;;;;5053852;28;20041;-66
2022/11/10 02:10:28;;;;;;;20.92;5.35;;;;;;;;;;5053583;28;20041;-66
2022/11/10 02:12:54;;;;;;;17.40;4.82;;;;;;;;;;5052903;28;20585;-66
2022/11/10 02:15:20;;;;;;;17.98;5.13;;;;;;;;;;5053731;28;20053;-66
2022/11/10 02:17:47;;;;;;;19.33;5.55;;;;;;;;;;5053667;28;20037;-66
2022/11/10 02:20:15;;;;;;;23.40;5.43;;;;;;;;;;5053187;28;20353;-66
2022/11/10 02:22:41;;;;;;;22.13;5.10;;;;;;;;;;5053274;28;20122;-66
2022/11/10 02:25:08;;;;;;;14.88;4.70;;;;;;;;;;5053688;28;20467;-66
2022/11/10 02:27:34;;;;;;;18.70;5.25;;;;;;;;;;5052835;28;20114;-66
2022/11/10 02:30:00;;;;;;;21.65;5.30;;;;;;;;;;5053314;28;20037;-66
2022/11/10 02:32:27;;;;;;;19.25;4.88;;;;;;;;;;5053292;28;20087;-66
2022/11/10 02:34:53;;;;;;;18.55;4.85;;;;;;;;;;5052810;28;20135;-66
2022/11/10 02:37:19;;;;;;;14.48;4.90;;;;;;;;;;5053341;28;20078;-66
2022/11/10 02:39:45;;;;;;;23.70;4.88;;;;;;;;;;5053039;28;20087;-66
2022/11/10 02:42:11;;;;;;;20.20;4.90;;;;;;;;;;5052807;28;20084;-66
2022/11/10 02:44:38;;;;;;;18.60;5.55;;;;;;;;;;5052810;28;20052;-66
2022/11/10 02:47:04;;;;;;;18.70;5.07;;;;;;;;;;5052994;28;20047;-66
2022/11/10 02:49:30;;;;;;;11.70;4.45;;;;;;;;;;5052624;28;20052;-66
2022/11/10 02:51:56;;;;;;;10.55;4.50;;;;;;;;;;5053113;28;20052;-66
2022/11/10 02:54:22;;;;;;;16.67;4.53;;;;;;;;;;5052670;28;20041;-66
2022/11/10 02:56:48;;;;;;;16.98;5.20;;;;;;;;;;5052527;28;20077;-66
2022/11/10 02:59:14;;;;;;;18.13;5.57;;;;;;;;;;5052753;28;20451;-66
2022/11/10 03:01:40;;;;;;;21.45;5.43;;;;;;;;;;5052519;28;20047;-66
2022/11/10 03:04:07;;;;;;;18.67;5.05;;;;;;;;;;5052411;28;20055;-66
2022/11/10 03:06:33;;;;;;;17.42;5.60;;;;;;;;;;5052737;28;20402;-66
2022/11/10 03:08:59;;;;;;;23.45;6.13;;;;;;;;;;5032733;28;20492;-66
2022/11/10 03:11:25;;;;;;;21.10;5.40;;;;;;;;;;5032057;28;20085;-66
2022/11/10 03:13:51;;;;;;;20.45;5.80;;;;;;;;;;5032612;28;20045;-66
2022/11/10 03:16:17;;;;;;;25.25;5.95;;;;;;;;;;5032614;28;20388;-66
2022/11/10 03:18:43;;;;;;;23.40;6.13;;;;;;;;;;5032194;28;20042;-66
2022/11/10 03:21:09;;;;;;;23.70;6.53;;;;;;;;;;5032415;28;20042;-66
2022/11/10 03:23:35;;;;;;;22.75;7.47;;;;;;;;;;5032487;28;20052;-66
2022/11/10 03:26:05;;;;;;;19.02;7.03;;;;;;;;;;5040573;28;20051;-66
2022/11/10 03:28:31;;;;;;;25.70;6.72;;;;;;;;;;5052199;28;20060;-66
2022/11/10 03:30:58;;;;;;;19.58;7.07;;;;;;;;;;5052131;28;20628;-66
2022/11/10 03:33:24;;;;;;;20.77;7.15;;;;;;;;;;5051762;28;20072;-66
2022/11/10 03:35:50;;;;;;;22.98;7.57;;;;;;;;;;5051452;28;20033;-66
2022/11/10 03:38:16;;;;;;;26.80;7.53;;;;;;;;;;5051984;28;20065;-66
2022/11/10 03:40:42;;;;;;;25.63;6.80;;;;;;;;;;5051639;28;20036;-66
2022/11/10 03:43:08;;;;;;;34.85;8.10;;;;;;;;;;5052009;28;20037;-66
2022/11/10 03:45:34;;;;;;;31.33;8.60;;;;;;;;;;5051786;28;20106;-66
2022/11/10 03:48:00;;;;;;;22.65;7.70;;;;;;;;;;5051645;28;20036;-66
2022/11/10 03:50:26;;;;;;;20.45;7.15;;;;;;;;;;5051897;28;20037;-66
2022/11/10 03:52:52;;;;;;;27.35;8.50;;;;;;;;;;5051813;28;20048;-66
2022/11/10 03:55:18;;;;;;;28.27;9.05;;;;;;;;;;5051469;28;20123;-66
2022/11/10 03:57:44;;;;;;;26.38;8.15;;;;;;;;;;5051728;28;20044;-66
2022/11/10 04:00:11;;;;;;;33.33;8.88;;;;;;;;;;5051530;28;20033;-66
2022/11/10 04:02:38;;;;;;;28.73;8.45;;;;;;;;;;5051380;28;20373;-66
2022/11/10 04:10:41;;;;;;;29.45;8.40;;;;;;;;;;5050868;28;20094;-66
2022/11/10 04:15:52;;;;;;;31.40;9.50;;;;;;;;;;5051635;28;20077;-66
2022/11/10 04:18:23;;;;;;;28.75;8.75;;;;;;;;;;5051272;28;20095;-66
2022/11/10 04:20:49;;;;;;;27.95;7.95;;;;;;;;;;5051526;28;20044;-66
2022/11/10 04:23:35;;;;;;;34.20;8.40;;;;;;;;;;5051514;28;20045;-66
2022/11/10 04:28:53;;;;;;;25.58;7.80;;;;;;;;;;5051106;28;20048;-66
2022/11/10 04:31:20;;;;;;;26.23;8.35;;;;;;;;;;5050926;28;20118;-66
2022/11/10 04:33:47;;;;;;;32.00;8.32;;;;;;;;;;5051469;28;20048;-66
2022/11/10 04:36:14;;;;;;;29.08;7.90;;;;;;;;;;5051382;28;20119;-66
2022/11/10 04:38:41;;;;;;;30.73;8.45;;;;;;;;;;5050882;28;20037;-66
2022/11/10 04:41:07;;;;;;;25.70;8.43;;;;;;;;;;5050676;28;20041;-66
2022/11/10 04:43:33;;;;;;;29.67;8.43;;;;;;;;;;5051254;28;20543;-66
2022/11/10 04:46:00;;;;;;;29.73;7.32;;;;;;;;;;5052511;28;20419;-66
2022/11/10 04:48:26;;;;;;;24.90;7.05;;;;;;;;;;5054682;28;20044;-66
2022/11/10 04:50:52;;;;;;;27.50;8.15;;;;;;;;;;5055275;28;20430;-66
2022/11/10 04:53:19;;;;;;;25.08;7.80;;;;;;;;;;5055229;28;20032;-66
2022/11/10 04:55:45;;;;;;;24.13;7.85;;;;;;;;;;5054512;28;20037;-66
2022/11/10 04:58:12;;;;;;;23.08;7.65;;;;;;;;;;5055086;28;20037;-66
2022/11/10 05:00:38;;;;;;;35.00;8.48;;;;;;;;;;5054999;28;20065;-66
2022/11/10 05:03:05;;;;;;;28.08;9.05;;;;;;;;;;5054702;28;20059;-66
2022/11/10 05:05:32;;;;;;;21.95;8.02;;;;;;;;;;5054928;28;20130;-66
2022/11/10 05:07:58;;;;;;;27.50;9.02;;;;;;;;;;5054824;28;20041;-66
2022/11/10 05:10:24;;;;;;;29.55;8.10;;;;;;;;;;5054511;28;20069;-66
2022/11/10 05:12:54;;;;;;;26.60;9.45;;;;;;;;;;5054607;28;20832;-66
2022/11/10 05:15:21;;;;;;;36.05;9.82;;;;;;;;;;5054891;28;20052;-66
2022/11/10 05:17:51;;;;;;;29.00;8.32;;;;;;;;;;5054336;28;20375;-66
2022/11/10 05:20:18;;;;;;;30.20;8.88;;;;;;;;;;5054736;28;20055;-66
2022/11/10 05:22:45;;;;;;;27.42;8.55;;;;;;;;;;5054614;28;20033;-66
2022/11/10 05:25:11;;;;;;;26.33;9.13;;;;;;;;;;5054283;28;20485;-66
2022/11/10 05:27:37;;;;;;;29.17;8.68;;;;;;;;;;5054662;28;20043;-66
2022/11/10 05:30:03;;;;;;;34.30;10.30;;;;;;;;;;5054616;28;20037;-66
2022/11/10 05:32:29;;;;;;;33.10;10.38;;;;;;;;;;5054135;28;20060;-66
2022/11/10 05:34:55;;;;;;;25.63;8.98;;;;;;;;;;5054599;28;20037;-66
2022/11/10 05:37:21;;;;;;;35.58;9.93;;;;;;;;;;5054389;28;20087;-66
2022/11/10 05:39:47;;;;;;;30.05;9.00;;;;;;;;;;5053951;28;20037;-66
2022/11/10 05:42:13;;;;;;;31.20;9.27;;;;;;;;;;5054451;28;20116;-66
2022/11/10 05:44:39;;;;;;;33.10;10.20;;;;;;;;;;5054454;28;20124;-66
2022/11/10 05:47:06;;;;;;;31.15;9.65;;;;;;;;;;5053914;28;20048;-66
2022/11/10 05:49:32;;;;;;;32.95;10.30;;;;;;;;;;5054103;28;20545;-66
2022/11/10 05:51:58;;;;;;;35.45;10.20;;;;;;;;;;5053940;28;20580;-66
2022/11/10 05:54:24;;;;;;;28.00;9.77;;;;;;;;;;5053534;28;20126;-66
2022/11/10 05:56:50;;;;;;;27.33;10.30;;;;;;;;;;5053714;28;20044;-66
2022/11/10 05:59:16;;;;;;;34.58;10.00;;;;;;;;;;5053385;28;20128;-66
2022/11/10 06:01:42;;;;;;;38.28;10.90;;;;;;;;;;5053489;28;20044;-66
2022/11/10 06:04:08;;;;;;;31.17;9.82;;;;;;;;;;5054014;28;20041;-66
2022/11/10 06:06:34;;;;;;;30.02;9.30;;;;;;;;;;5053638;28;20090;-66
2022/11/10 06:09:00;;;;;;;24.95;9.38;;;;;;;;;;5033612;28;20079;-66
2022/11/10 06:11:26;;;;;;;30.70;9.73;;;;;;;;;;5033574;28;20045;-66
2022/11/10 06:13:52;;;;;;;34.28;9.43;;;;;;;;;;5033879;28;20083;-66
2022/11/10 06:16:18;;;;;;;24.88;9.75;;;;;;;;;;5033527;28;20116;-66
2022/11/10 06:18:44;;;;;;;31.70;9.52;;;;;;;;;;5033618;28;20045;-66
2022/11/10 06:21:10;;;;;;;37.38;9.38;;;;;;;;;;5033697;28;20042;-66
2022/11/10 06:23:36;;;;;;;36.13;9.98;;;;;;;;;;5033246;28;20041;-66
2022/11/10 06:26:02;;;;;;;35.47;9.52;;;;;;;;;;5042338;28;20047;-66
2022/11/10 06:28:28;;;;;;;25.75;9.77;;;;;;;;;;5053494;28;20480;-66
2022/11/10 06:30:57;;;;;;;31.17;8.73;;;;;;;;;;5052948;28;20073;-66
2022/11/10 06:33:24;;;;;;;29.23;8.63;;;;;;;;;;5053326;28;20045;-67
2022/11/10 06:35:50;;;;;;;31.27;9.27;;;;;;;;;;5051273;28;20129;-66
2022/11/10 06:38:16;;;;;;;30.45;9.13;;;;;;;;;;5051664;28;20131;-68
2022/11/10 06:40:42;;;;;;;30.40;8.90;;;;;;;;;;5050838;28;20083;-67
2022/11/10 06:43:08;;;;;;;35.05;10.75;;;;;;;;;;5052302;28;20052;-66
2022/11/10 06:45:34;;;;;;;28.90;8.82;;;;;;;;;;5052249;28;20044;-65
2022/11/10 06:48:12;;;;;;;36.42;9.25;;;;;;;;;;5052495;28;20396;-65
2022/11/10 06:50:38;;;;;;;35.58;8.77;;;;;;;;;;5052544;28;20037;-66
2022/11/10 06:53:05;;;;;;;33.22;9.63;;;;;;;;;;5051867;28;20083;-65
2022/11/10 06:55:31;;;;;;;36.03;9.45;;;;;;;;;;5052597;28;20033;-66
2022/11/10 06:57:57;;;;;;;32.67;8.75;;;;;;;;;;5052173;28;20098;-66
2022/11/10 07:00:24;;;;;;;30.90;9.15;;;;;;;;;;5052165;28;20115;-66
2022/11/10 07:02:59;;;;;;;24.15;9.50;;;;;;;;;;5051567;28;20044;-67
2022/11/10 07:05:26;;;;;;;32.38;9.32;;;;;;;;;;5051511;28;20041;-66
2022/11/10 07:07:52;;;;;;;31.75;10.15;;;;;;;;;;5051342;28;20102;-66
2022/11/10 07:10:18;;;;;;;25.35;9.25;;;;;;;;;;5051949;28;20060;-65
2022/11/10 07:12:44;;;;;;;34.78;10.43;;;;;;;;;;5051883;28;20045;-65
2022/11/10 07:15:10;;;;;;;34.10;9.90;;;;;;;;;;5050796;28;20049;-66
2022/11/10 07:17:39;;;;;;;31.17;10.10;;;;;;;;;;5050540;28;20128;-66
2022/11/10 07:20:06;;;;;;;29.73;9.57;;;;;;;;;;5039118;28;20049;-66
2022/11/10 07:22:32;;;;;;;35.95;9.75;;;;;;;;;;5050219;28;20633;-67
2022/11/10 07:24:58;;;;;;;31.15;10.43;;;;;;;;;;5050635;28;20463;-67
2022/11/10 07:27:24;;;;;;;34.28;10.13;;;;;;;;;;5048812;28;20041;-66
2022/11/10 07:29:50;;;;;;;32.13;8.82;;;;;;;;;;5050897;28;20037;-66
2022/11/10 07:32:16;;;;;;;31.45;10.15;;;;;;;;;;5051245;28;20060;-66
2022/11/10 07:34:42;;;;;;;29.20;9.65;;;;;;;;;;5051033;28;20123;-66
2022/11/10 07:37:08;;;;;;;32.22;10.07;;;;;;;;;;5044547;28;20040;-68
2022/11/10 07:39:34;;;;;;;38.92;10.48;;;;;;;;;;5047663;28;20037;-67
2022/11/10 07:42:00;;;;;;;30.50;9.90;;;;;;;;;;5050160;28;20171;-66
2022/11/10 07:44:26;;;;;;;33.03;10.80;;;;;;;;;;5050124;28;20041;-67
2022/11/10 07:46:52;;;;;;;32.63;9.32;;;;;;;;;;5050370;28;20040;-67
2022/11/10 07:49:19;;;;;;;31.50;9.25;;;;;;;;;;5050419;28;20040;-67
2022/11/10 07:51:45;;;;;;;27.90;8.75;;;;;;;;;;5050388;28;20045;-67
2022/11/10 07:54:11;;;;;;;35.33;10.20;;;;;;;;;;5050161;28;20037;-67
2022/11/10 07:56:37;;;;;;;30.00;9.80;;;;;;;;;;5048977;28;20084;-67
2022/11/10 07:59:03;;;;;;;24.67;8.57;;;;;;;;;;5048118;28;20056;-66
2022/11/10 08:01:29;;;;;;;32.50;9.05;;;;;;;;;;5049621;28;20033;-66
2022/11/10 08:03:55;;;;;;;32.28;9.00;;;;;;;;;;5050044;28;20044;-66
2022/11/10 08:06:21;;;;;;;32.92;9.23;;;;;;;;;;5047132;28;20159;-66
2022/11/10 08:08:47;;;;;;;30.85;9.15;;;;;;;;;;5049424;28;20527;-65
2022/11/10 08:11:13;;;;;;;29.58;9.65;;;;;;;;;;5048608;28;20128;-65
2022/11/10 08:13:40;;;;;;;28.42;9.10;;;;;;;;;;5048934;28;20045;-66
2022/11/10 08:16:06;;;;;;;32.28;9.68;;;;;;;;;;5050006;28;20041;-65
2022/11/10 08:18:32;;;;;;;26.30;9.88;;;;;;;;;;5047694;28;20040;-66
2022/11/10 08:21:02;;;;;;;37.08;11.80;;;;;;;;;;5048528;28;20100;-66
2022/11/10 08:23:28;;;;;;;29.85;10.80;;;;;;;;;;5049489;28;20041;-65
2022/11/10 08:25:57;;;;;;;31.35;10.52;;;;;;;;;;5039951;28;20036;-66
2022/11/10 08:28:23;;;;;;;28.75;10.93;;;;;;;;;;5044348;28;20095;-65
2022/11/10 08:30:49;;;;;;;38.85;12.27;;;;;;;;;;5048924;28;20422;-66
2022/11/10 08:33:17;;;;;;;29.83;12.00;;;;;;;;;;5048856;28;20037;-66
2022/11/10 08:35:44;;;;;;;30.63;12.63;;;;;;;;;;5048541;28;20143;-67
2022/11/10 08:38:12;;;;;;;32.83;12.20;;;;;;;;;;5048848;28;20052;-67
2022/11/10 08:40:39;;;;;;;32.92;11.93;;;;;;;;;;5048404;28;20471;-65
2022/11/10 08:43:06;;;;;;;33.15;12.48;;;;;;;;;;5048412;28;20563;-66
2022/11/10 08:45:33;;;;;;;31.42;12.18;;;;;;;;;;5044091;28;20049;-66
2022/11/10 08:48:04;;;;;;;36.58;12.55;;;;;;;;;;5049847;28;20041;-65
2022/11/10 08:50:30;;;;;;;29.80;12.15;;;;;;;;;;5047883;28;20071;-65
2022/11/10 08:52:56;;;;;;;39.92;9.90;;;;;;;;;;5047891;28;20412;-66
2022/11/10 08:55:23;;;;;;;29.33;10.55;;;;;;;;;;5048915;28;20052;-66
2022/11/10 08:57:49;;;;;;;27.98;9.25;;;;;;;;;;5048533;28;20041;-65
2022/11/10 09:00:16;;;;;;;28.30;9.15;;;;;;;;;;5047070;28;20066;-67
2022/11/10 09:02:42;;;;;;;30.40;9.40;;;;;;;;;;5030878;28;20045;-66
2022/11/10 09:05:08;;;;;;;27.95;8.57;;;;;;;;;;5048011;28;20053;-65
2022/11/10 09:07:42;;;;;;;28.90;8.10;;;;;;;;;;5047586;28;20691;-66
2022/11/10 09:10:08;;;;;;;28.02;8.15;;;;;;;;;;5048176;28;20070;-67
2022/11/10 09:12:35;;;;;;;28.65;7.75;;;;;;;;;;5047852;28;20068;-65
2022/11/10 09:15:01;;;;;;;36.47;7.63;;;;;;;;;;5048722;28;20081;-65
2022/11/10 09:17:27;;;;;;;27.10;7.20;;;;;;;;;;5049037;28;20044;-65
2022/11/10 09:19:53;;;;;;;25.85;8.00;;;;;;;;;;5048832;28;20041;-64
2022/11/10 09:22:19;;;;;;;24.80;7.50;;;;;;;;;;5047703;28;20391;-65
2022/11/10 09:24:45;;;;;;;27.33;7.32;;;;;;;;;;5048951;28;20468;-65
2022/11/10 09:27:11;;;;;;;27.75;7.10;;;;;;;;;;5048364;28;20075;-65
2022/11/10 09:29:38;;;;;;;24.42;7.38;;;;;;;;;;5047837;28;20036;-64
2022/11/10 09:32:04;;;;;;;30.48;6.93;;;;;;;;;;5042257;28;20044;-66
2022/11/10 09:34:30;;;;;;;29.52;6.35;;;;;;;;;;5051493;28;20135;-67
2022/11/10 09:36:56;;;;;;;28.20;6.40;;;;;;;;;;5056083;28;20044;-67
2022/11/10 09:39:22;;;;;;;24.38;6.95;;;;;;;;;;5051623;28;20053;-67
2022/11/10 09:41:48;;;;;;;26.20;8.23;;;;;;;;;;5051901;28;20080;-67
2022/11/10 09:44:17;;;;;;;24.38;7.10;;;;;;;;;;5051939;28;20146;-65
2022/11/10 09:46:54;;;;;;;24.85;7.95;;;;;;;;;;5051927;28;20079;-65
2022/11/10 09:49:34;;;;;;;27.13;8.18;;;;;;;;;;5050601;28;20056;-66
2022/11/10 09:52:01;;;;;;;33.72;9.93;;;;;;;;;;5052421;28;20075;-66
2022/11/10 09:54:45;;;;;;;31.98;10.15;;;;;;;;;;5052309;28;20048;-66
2022/11/10 09:57:13;;;;;;;38.92;10.18;;;;;;;;;;5051277;28;20048;-66
2022/11/10 09:59:40;;;;;;;30.13;8.68;;;;;;;;;;5050651;28;20044;-67
2022/11/10 10:02:12;;;;;;;30.88;9.50;;;;;;;;;;5051677;28;20090;-66
2022/11/10 10:04:37;;;;;;;40.30;11.32;;;;;;;;;;5052270;28;20099;-66
2022/11/10 10:07:13;;;;;;;31.08;9.90;;;;;;;;;;5051136;28;20434;-66
2022/11/10 10:10:02;;;;;;;27.00;8.65;;;;;;;;;;5051656;28;20080;-68
2022/11/10 10:12:37;;;;;;;32.75;8.13;;;;;;;;;;5040444;28;20053;-66
2022/11/10 10:15:13;;;;;;;22.80;7.63;;;;;;;;;;5049583;28;20045;-66
2022/11/10 10:17:57;;;;;;;24.55;6.95;;;;;;;;;;5051456;28;20124;-67
2022/11/10 10:20:39;;;;;;;22.92;6.07;;;;;;;;;;5031821;28;20041;-66
2022/11/10 10:23:14;;;;;;;29.53;7.03;;;;;;;;;;5048890;28;20423;-66
2022/11/10 10:25:41;;;;;;;23.98;5.00;;;;;;;;;;5050704;28;20048;-67
2022/11/10 10:28:13;;;;;;;28.48;5.72;;;;;;;;;;5050324;28;20041;-66
2022/11/10 10:30:40;;;;;;;26.50;5.35;;;;;;;;;;5050448;28;20048;-66
2022/11/10 10:33:21;;;;;;;20.30;4.80;;;;;;;;;;5049624;28;20045;-67
2022/11/10 10:35:47;;;;;;;24.92;5.18;;;;;;;;;;5050041;28;20043;-66
2022/11/10 10:38:22;;;;;;;24.83;4.60;;;;;;;;;;5049761;28;20784;-66
2022/11/10 10:40:49;;;;;;;17.48;4.40;;;;;;;;;;5051562;28;20041;-67
2022/11/10 10:43:15;;;;;;;21.75;3.95;;;;;;;;;;5048038;28;20033;-66
2022/11/10 10:45:41;;;;;;;20.23;3.97;;;;;;;;;;5049069;28;20857;-66
2022/11/10 10:48:23;;;;;;;15.65;3.28;;;;;;;;;;5049089;28;20033;-67
2022/11/10 10:50:49;;;;;;;19.37;4.07;;;;;;;;;;5043984;28;20057;-66
2022/11/10 10:53:22;;;;;;;28.25;4.10;;;;;;;;;;5049352;28;20071;-66
2022/11/10 10:56:04;;;;;;;17.98;3.95;;;;;;;;;;5048673;28;20044;-68
2022/11/10 10:58:31;;;;;;;21.80;3.90;;;;;;;;;;5043879;28;20045;-67
2022/11/10 11:01:15;;;;;;;23.63;3.80;;;;;;;;;;5050104;28;20071;-66
2022/11/10 11:03:46;;;;;;;19.55;3.72;;;;;;;;;;5050224;28;20051;-66
2022/11/10 11:06:17;;;;;;;16.08;3.47;;;;;;;;;;5050429;28;20098;-67
2022/11/10 11:09:00;;;;;;;25.67;3.60;;;;;;;;;;5049872;28;20052;-67
2022/11/10 11:11:27;;;;;;;23.15;3.63;;;;;;;;;;5031617;28;20043;-67
2022/11/10 11:14:12;;;;;;;22.30;3.70;;;;;;;;;;5050611;28;20075;-67
2022/11/10 11:16:51;;;;;;;18.50;3.03;;;;;;;;;;5049462;28;20075;-67
2022/11/10 11:19:18;;;;;;;17.17;3.42;;;;;;;;;;5048218;28;20048;-66
2022/11/10 11:21:50;;;;;;;25.83;4.25;;;;;;;;;;5049778;28;20036;-68
2022/11/10 11:24:35;;;;;;;20.42;3.20;;;;;;;;;;5047757;28;20099;-67
2022/11/10 11:27:10;;;;;;;19.08;3.03;;;;;;;;;;5047770;28;20053;-67
2022/11/10 11:29:42;;;;;;;15.27;3.05;;;;;;;;;;5050051;28;20528;-68
2022/11/10 11:32:08;;;;;;;;;;;;;;;;;;5049693;28;20124;-67
2022/11/10 11:34:51;;;;;;;21.38;3.47;;;;;;;;;;5049999;28;20050;-67
2022/11/10 11:37:32;;;;;;;14.15;3.15;;;;;;;;;;5047663;28;20068;-67
2022/11/10 11:40:17;;;;;;;20.48;3.25;;;;;;;;;;5049112;28;20045;-67
2022/11/10 11:42:49;;;;;;;17.30;4.57;;;;;;;;;;5048523;28;20037;-67
2022/11/10 11:45:15;;;;;;;15.85;2.97;;;;;;;;;;5050517;28;20048;-67
2022/11/10 11:47:51;;;;;;;22.55;3.83;;;;;;;;;;5050970;28;20044;-67
2022/11/10 11:50:27;;;;;;;20.75;3.58;;;;;;;;;;5050722;28;20079;-67
2022/11/10 11:52:57;;;;;;;21.30;3.03;;;;;;;;;;5049378;28;20475;-67
2022/11/10 11:55:30;;;;;;;19.45;3.17;;;;;;;;;;5048063;28;20152;-67
2022/11/10 11:58:02;;;;;;;14.90;3.30;;;;;;;;;;5050587;28;20037;-67
2022/11/10 12:00:28;;;;;;;;;;;;;;;;;;5051133;28;20414;-67
2022/11/10 12:02:54;;;;;;;19.45;3.22;;;;;;;;;;5048828;28;19921;-67
2022/11/10 12:05:29;;;;;;;19.77;3.33;;;;;;;;;;5050959;28;20225;-67
2022/11/10 12:08:21;;;;;;;17.10;2.95;;;;;;;;;;5050733;28;20072;-67
2022/11/10 12:10:47;;;;;;;17.48;3.22;;;;;;;;;;5050215;28;20384;-67
2022/11/10 12:13:16;;;;;;;21.55;3.25;;;;;;;;;;5050281;28;20115;-67
2022/11/10 12:15:59;;;;;;;21.33;3.30;;;;;;;;;;5050398;28;20047;-67
2022/11/10 12:18:31;;;;;;;17.85;3.40;;;;;;;;;;5049013;28;20399;-67
2022/11/10 12:21:16;;;;;;;20.42;3.50;;;;;;;;;;5047717;28;20541;-67
2022/11/10 12:23:57;;;;;;;15.63;3.05;;;;;;;;;;5044375;28;20125;-66
2022/11/10 12:26:29;;;;;;;19.40;3.05;;;;;;;;;;5043223;28;20037;-67
2022/11/10 12:29:03;;;;;;;23.20;3.55;;;;;;;;;;5049071;28;20051;-66
2022/11/10 12:31:32;;;;;;;18.70;2.80;;;;;;;;;;5045981;28;20041;-68
2022/11/10 12:34:01;;;;;;;18.85;2.95;;;;;;;;;;5041671;28;20083;-67
2022/11/10 12:36:27;;;;;;;21.05;3.97;;;;;;;;;;5050386;28;20076;-67
2022/11/10 12:39:00;;;;;;;21.48;3.65;;;;;;;;;;5049464;28;20033;-68
2022/11/10 12:41:28;;;;;;;17.90;2.65;;;;;;;;;;5049615;28;20041;-68
2022/11/10 12:44:00;;;;;;;20.92;3.33;;;;;;;;;;5050711;28;20044;-69
2022/11/10 12:46:26;;;;;;;20.40;3.03;;;;;;;;;;5048368;28;20065;-67
2022/11/10 12:49:10;;;;;;;17.83;2.97;;;;;;;;;;5049636;28;20049;-70
2022/11/10 12:52:09;;;;;;;17.85;2.55;;;;;;;;;;5047868;28;20075;-69
2022/11/10 12:54:35;;;;;;;21.80;3.95;;;;;;;;;;5029273;28;20659;-67
2022/11/10 12:57:04;;;;;;;17.63;3.65;;;;;;;;;;5049621;28;20365;-66
2022/11/10 12:59:37;;;;;;;19.55;3.08;;;;;;;;;;5048983;28;20045;-68
2022/11/10 13:02:05;;;;;;;15.07;2.47;;;;;;;;;;5048568;28;20094;-69
2022/11/10 13:04:31;;;;;;;17.83;3.00;;;;;;;;;;5049611;28;20048;-68
2022/11/10 13:07:01;;;;;;;15.88;2.60;;;;;;;;;;5049656;28;20037;-69
2022/11/10 13:09:35;;;;;;;22.83;3.35;;;;;;;;;;5053182;28;20064;-69
2022/11/10 13:12:09;;;;;;;16.73;2.97;;;;;;;;;;5052743;28;20869;-69
2022/11/10 13:14:37;;;;;;;23.70;3.22;;;;;;;;;;5054105;28;20049;-66
2022/11/10 13:17:03;;;;;;;17.15;2.63;;;;;;;;;;5052633;28;20680;-68
2022/11/10 13:19:32;;;;;;;15.85;2.88;;;;;;;;;;5052658;28;20115;-66
2022/11/10 13:21:59;;;;;;;15.82;2.30;;;;;;;;;;5052707;28;20037;-65
2022/11/10 13:24:29;;;;;;;16.15;3.08;;;;;;;;;;5052720;28;20041;-67
2022/11/10 13:27:00;;;;;;;16.77;2.40;;;;;;;;;;5049622;28;20040;-67
2022/11/10 13:29:44;;;;;;;13.55;2.60;;;;;;;;;;5054280;28;20037;-67
2022/11/10 13:32:10;;;;;;;18.17;2.80;;;;;;;;;;5046673;28;20055;-67
2022/11/10 13:34:37;;;;;;;19.38;3.30;;;;;;;;;;5057116;28;20041;-67
2022/11/10 13:37:23;;;;;;;14.35;2.33;;;;;;;;;;5053580;28;20856;-66
2022/11/10 13:39:49;;;;;;;18.27;3.28;;;;;;;;;;5051436;28;20044;-66
2022/11/10 13:42:22;;;;;;;12.88;3.17;;;;;;;;;;5052081;28;20450;-66
2022/11/10 13:44:49;;;;;;;17.70;3.00;;;;;;;;;;5052795;28;20043;-66
2022/11/10 13:47:18;;;;;;;19.48;3.15;;;;;;;;;;5051676;28;20048;-67
2022/11/10 13:49:53;;;;;;;16.38;2.85;;;;;;;;;;5055505;28;20045;-66
2022/11/10 13:52:25;;;;;;;16.40;3.30;;;;;;;;;;5051719;28;20037;-67
2022/11/10 13:54:51;;;;;;;14.18;2.90;;;;;;;;;;5051761;28;20041;-66
2022/11/10 13:57:23;;;;;;;16.05;2.95;;;;;;;;;;5052351;28;20460;-67
2022/11/10 13:59:55;;;;;;;19.15;3.25;;;;;;;;;;5053445;28;20041;-66
2022/11/10 14:02:33;;;;;;;22.88;4.38;;;;;;;;;;5054093;28;20087;-67
2022/11/10 14:05:00;;;;;;;18.60;2.95;;;;;;;;;;5051924;28;20084;-66
2022/11/10 14:07:40;;;;;;;18.00;3.75;;;;;;;;;;5051988;28;20033;-66
2022/11/10 14:10:15;;;;;;;16.65;3.22;;;;;;;;;;5051751;28;20051;-66
2022/11/10 14:12:52;;;;;;;15.20;2.70;;;;;;;;;;5052012;28;20608;-67
2022/11/10 14:15:20;;;;;;;15.50;4.03;;;;;;;;;;5051958;28;20116;-67
2022/11/10 14:17:54;;;;;;;17.55;3.33;;;;;;;;;;5050996;28;20039;-66
2022/11/10 14:20:26;;;;;;;16.13;2.97;;;;;;;;;;5050258;28;20036;-66
2022/11/10 14:22:53;;;;;;;16.00;2.97;;;;;;;;;;5049351;28;20045;-66
2022/11/10 14:25:19;;;;;;;18.92;3.15;;;;;;;;;;5049908;28;20044;-65
2022/11/10 14:27:45;;;;;;;17.77;3.15;;;;;;;;;;5051275;28;20048;-66
2022/11/10 14:30:20;;;;;;;18.92;3.03;;;;;;;;;;5051928;28;20063;-67
2022/11/10 14:33:08;;;;;;;16.70;2.88;;;;;;;;;;5051356;28;20125;-67
2022/11/10 14:35:46;;;;;;;13.95;2.60;;;;;;;;;;5046178;28;20049;-69
2022/11/10 14:38:17;;;;;;;16.90;3.22;;;;;;;;;;5051375;28;20159;-67
2022/11/10 14:40:43;;;;;;;21.42;3.92;;;;;;;;;;5051856;28;20041;-66
2022/11/10 14:43:29;;;;;;;18.90;2.80;;;;;;;;;;5050513;28;20845;-67
2022/11/10 14:45:55;;;;;;;11.18;2.47;;;;;;;;;;5052926;28;20037;-67
2022/11/10 14:48:24;;;;;;;18.50;3.00;;;;;;;;;;5058966;28;20048;-66
2022/11/10 14:50:50;;;;;;;14.68;2.50;;;;;;;;;;5052399;28;20045;-66